Time;durP1;ratioP1;P1;durP2;ratioP2;P2;SDS_P1;SDS_P2;PMS_P1;PMS_P2;Temp;Humidity;BMP_temperature;BMP_pressure;BME280_temperature;BME280_humidity;BME280_pressure;Samples;Min_cycle;Max_cycle;Signal;HPM_P1;HPM_P2
2022/08/14 00:01:25;;;;;;;0.10;0.10;;;15.40;99.90;;;;;;5034600;28;20194;-79
2022/08/14 00:03:56;;;;;;;0.52;0.13;;;15.40;99.90;;;;;;5027282;28;20194;-79
2022/08/14 00:06:27;;;;;;;0.30;0.30;;;15.50;99.90;;;;;;5034329;28;20194;-80
2022/08/14 00:08:57;;;;;;;0.20;0.20;;;15.70;99.90;;;;;;5026485;28;20199;-77
2022/08/14 00:11:29;;;;;;;0.15;0.15;;;15.80;99.90;;;;;;5033991;28;20649;-82
2022/08/14 00:14:01;;;;;;;0.40;0.30;;;15.80;99.90;;;;;;5032265;28;20187;-79
2022/08/14 00:16:32;;;;;;;0.30;0.20;;;15.90;99.90;;;;;;5033863;28;20186;-79
2022/08/14 00:19:04;;;;;;;0.20;0.20;;;16.10;99.90;;;;;;5025994;28;20189;-80
2022/08/14 00:21:34;;;;;;;0.20;0.20;;;16.20;99.90;;;;;;5033820;28;20187;-78
2022/08/14 00:24:05;;;;;;;0.90;0.30;;;16.40;99.90;;;;;;5031607;28;20193;-72
2022/08/14 00:26:36;;;;;;;4.03;0.30;;;16.60;99.90;;;;;;5030248;28;20298;-78
2022/08/14 00:29:09;;;;;;;0.22;0.17;;;16.60;99.90;;;;;;5031836;28;20194;-77
2022/08/14 00:31:40;;;;;;;0.22;0.20;;;16.70;99.90;;;;;;5029984;28;20222;-78
2022/08/14 00:34:10;;;;;;;0.77;0.20;;;16.50;99.90;;;;;;5025016;28;20591;-80
2022/08/14 00:36:42;;;;;;;0.25;0.13;;;16.30;99.90;;;;;;5034585;28;20194;-81
2022/08/14 00:39:16;;;;;;;0.40;0.10;;;16.10;99.90;;;;;;5025580;28;20305;-78
2022/08/14 00:41:47;;;;;;;0.73;0.30;;;15.80;99.90;;;;;;5029352;28;20232;-76
2022/08/14 00:44:20;;;;;;;1.15;0.20;;;15.70;99.90;;;;;;5031817;28;20195;-80
2022/08/14 00:46:51;;;;;;;0.20;0.20;;;15.60;99.90;;;;;;5027247;28;20675;-81
2022/08/14 00:49:22;;;;;;;0.30;0.20;;;15.60;99.90;;;;;;5033831;28;20193;-78
2022/08/14 00:51:52;;;;;;;0.20;0.13;;;15.60;99.90;;;;;;5033315;28;20269;-79
2022/08/14 00:54:23;;;;;;;0.20;0.20;;;15.50;99.90;;;;;;5032693;28;20197;-79
2022/08/14 00:56:55;;;;;;;0.22;0.20;;;15.50;99.90;;;;;;5032920;28;20194;-78
2022/08/14 00:59:29;;;;;;;0.52;0.30;;;15.70;99.90;;;;;;5032857;28;20187;-80
2022/08/14 01:02:01;;;;;;;0.20;0.20;;;16.00;99.90;;;;;;5032124;28;20660;-82
2022/08/14 01:04:35;;;;;;;0.52;0.20;;;16.10;99.90;;;;;;5029750;28;20194;-77
2022/08/14 01:07:06;;;;;;;0.20;0.20;;;16.00;99.90;;;;;;5026869;28;20300;-80
2022/08/14 01:09:39;;;;;;;0.20;0.20;;;15.90;99.90;;;;;;5032835;28;20198;-78
2022/08/14 01:12:10;;;;;;;0.47;0.20;;;15.90;99.90;;;;;;5032785;28;20277;-76
2022/08/14 01:14:43;;;;;;;0.17;0.17;;;15.90;99.90;;;;;;5026564;28;20237;-73
2022/08/14 01:17:14;;;;;;;0.17;0.13;;;16.00;99.90;;;;;;5031845;28;20190;-79
2022/08/14 01:22:35;;;;;;;0.20;0.20;;;16.10;99.90;;;;;;5023032;28;20205;-79
2022/08/14 01:25:06;;;;;;;0.22;0.20;;;16.10;99.90;;;;;;5020663;28;20207;-74
2022/08/14 01:27:43;;;;;;;0.55;0.20;;;16.10;99.90;;;;;;5026414;28;20209;-79
2022/08/14 01:30:14;;;;;;;0.10;0.10;;;16.10;99.90;;;;;;5031883;28;20196;-74
2022/08/14 01:32:45;;;;;;;0.50;0.30;;;16.10;99.90;;;;;;5032395;28;20735;-73
2022/08/14 01:35:16;;;;;;;0.35;0.20;;;16.20;99.90;;;;;;5031443;28;20196;-74
2022/08/14 01:37:50;;;;;;;0.10;0.10;;;16.10;99.90;;;;;;5029800;28;20224;-73
2022/08/14 01:40:23;;;;;;;1.35;0.20;;;16.10;99.90;;;;;;5028860;28;20245;-73
2022/08/14 01:42:54;;;;;;;1.42;0.40;;;16.10;99.90;;;;;;5032145;28;20524;-73
2022/08/14 01:45:25;;;;;;;0.45;0.20;;;16.30;99.90;;;;;;5031440;28;20260;-74
2022/08/14 01:47:56;;;;;;;0.30;0.22;;;16.30;99.90;;;;;;5032429;28;20218;-79
2022/08/14 01:50:27;;;;;;;0.30;0.20;;;16.50;99.90;;;;;;5030935;28;20189;-77
2022/08/14 01:53:00;;;;;;;0.10;0.10;;;16.50;99.90;;;;;;5029872;28;20677;-77
2022/08/14 01:55:32;;;;;;;1.17;0.30;;;16.50;99.90;;;;;;5029921;28;20186;-78
2022/08/14 01:58:03;;;;;;;0.20;0.10;;;16.60;99.90;;;;;;5028477;28;20190;-74
2022/08/14 02:00:37;;;;;;;0.82;0.30;;;16.70;99.90;;;;;;5031753;28;20182;-78
2022/08/14 02:03:08;;;;;;;0.52;0.20;;;16.80;99.90;;;;;;5030143;28;20190;-81
2022/08/14 02:05:40;;;;;;;0.47;0.30;;;16.90;99.90;;;;;;5028555;28;20558;-83
2022/08/14 02:08:13;;;;;;;0.20;0.20;;;17.00;99.90;;;;;;5031515;28;20218;-78
2022/08/14 02:11:15;;;;;;;1.00;0.30;;;17.00;99.90;;;;;;5030205;28;20194;-79
2022/08/14 02:13:35;;;;;;;0.30;0.22;;;17.10;99.90;;;;;;5029765;28;20194;-81
2022/08/14 02:16:07;;;;;;;2.20;0.17;;;17.10;99.90;;;;;;5031584;28;20721;-77
2022/08/14 02:18:38;;;;;;;0.20;0.20;;;17.20;99.90;;;;;;5026756;28;20233;-79
2022/08/14 02:21:09;;;;;;;0.28;0.20;;;17.30;99.90;;;;;;5030040;28;20193;-77
2022/08/14 02:23:42;;;;;;;0.10;0.10;;;17.50;99.90;;;;;;5029204;28;20194;-80
2022/08/14 02:26:20;;;;;;;0.25;0.25;;;17.50;99.90;;;;;;5031723;28;20194;-78
2022/08/14 02:28:52;;;;;;;0.40;0.30;;;17.60;99.90;;;;;;5031421;28;20287;-81
2022/08/14 02:31:23;;;;;;;0.32;0.30;;;17.70;99.90;;;;;;5018291;28;20222;-73
2022/08/14 02:33:54;;;;;;;0.20;0.20;;;17.60;99.90;;;;;;5024978;28;20220;-79
2022/08/14 02:36:25;;;;;;;0.32;0.20;;;17.50;99.90;;;;;;5026339;28;20186;-80
2022/08/14 02:38:57;;;;;;;0.32;0.20;;;17.50;99.90;;;;;;5029115;28;20769;-79
2022/08/14 02:41:28;;;;;;;0.47;0.25;;;17.50;99.90;;;;;;5030625;28;20195;-81
2022/08/14 02:43:59;;;;;;;0.20;0.20;;;17.40;99.90;;;;;;5031678;28;20225;-82
2022/08/14 02:46:31;;;;;;;0.20;0.20;;;17.50;99.90;;;;;;5031216;28;20190;-79
2022/08/14 02:49:02;;;;;;;0.38;0.25;;;17.50;99.90;;;;;;5026766;28;20221;-72
2022/08/14 02:51:33;;;;;;;0.22;0.22;;;17.40;99.90;;;;;;5031093;28;20193;-73
2022/08/14 02:54:08;;;;;;;0.40;0.30;;;17.30;99.90;;;;;;5031092;28;20277;-74
2022/08/14 02:56:39;;;;;;;0.30;0.20;;;17.30;99.90;;;;;;5029057;28;20200;-73
2022/08/14 02:59:12;;;;;;;0.40;0.30;;;17.40;99.90;;;;;;5032622;28;20286;-76
2022/08/14 03:01:44;;;;;;;1.20;0.30;;;17.60;99.90;;;;;;5032995;28;20718;-72
2022/08/14 03:04:15;;;;;;;0.88;0.20;;;17.60;99.90;;;;;;5030206;28;21002;-73
2022/08/14 03:06:45;;;;;;;0.50;0.35;;;17.70;99.90;;;;;;5030921;28;20237;-77
2022/08/14 03:09:18;;;;;;;0.25;0.22;;;17.70;99.90;;;;;;5035180;28;20213;-72
2022/08/14 03:11:49;;;;;;;0.30;0.30;;;17.50;99.90;;;;;;5034009;28;20281;-73
2022/08/14 03:14:22;;;;;;;0.47;0.30;;;17.60;99.90;;;;;;5030472;28;20194;-76
2022/08/14 03:16:54;;;;;;;0.47;0.40;;;17.70;99.90;;;;;;5030936;28;20214;-72
2022/08/14 03:19:25;;;;;;;0.30;0.30;;;17.90;99.90;;;;;;5027689;28;20199;-77
2022/08/14 03:21:56;;;;;;;0.20;0.20;;;18.00;99.90;;;;;;5034354;28;20198;-77
2022/08/14 03:24:28;;;;;;;0.30;0.20;;;18.00;99.90;;;;;;5031018;28;20277;-72
2022/08/14 03:26:59;;;;;;;0.20;0.20;;;17.90;99.90;;;;;;5031765;28;20191;-73
2022/08/14 03:29:30;;;;;;;0.22;0.20;;;17.90;99.90;;;;;;5031373;28;20210;-73
2022/08/14 03:32:01;;;;;;;0.20;0.20;;;17.80;99.90;;;;;;5031251;28;20218;-73
2022/08/14 03:34:32;;;;;;;0.15;0.10;;;17.60;99.90;;;;;;5028420;28;20224;-73
2022/08/14 03:37:02;;;;;;;0.17;0.17;;;17.50;99.90;;;;;;5034651;28;20205;-78
2022/08/14 03:39:35;;;;;;;0.13;0.13;;;17.50;99.90;;;;;;5032983;28;20319;-77
2022/08/14 03:42:06;;;;;;;0.50;0.15;;;17.70;99.90;;;;;;5032348;28;20190;-75
2022/08/14 03:44:38;;;;;;;0.15;0.10;;;17.70;99.90;;;;;;5031986;28;20196;-70
2022/08/14 03:47:10;;;;;;;1.10;0.20;;;17.80;99.90;;;;;;5031013;28;20650;-73
2022/08/14 03:49:42;;;;;;;0.20;0.20;;;17.70;99.90;;;;;;5030982;28;20233;-72
2022/08/14 03:52:14;;;;;;;0.10;0.10;;;17.70;99.90;;;;;;5032824;28;20386;-73
2022/08/14 03:54:47;;;;;;;0.30;0.10;;;17.80;99.90;;;;;;5028882;28;20202;-72
2022/08/14 03:57:18;;;;;;;0.75;0.30;;;17.80;99.90;;;;;;5031145;28;20198;-72
2022/08/14 03:59:49;;;;;;;0.15;0.15;;;17.90;99.90;;;;;;5030857;28;20190;-73
2022/08/14 04:02:21;;;;;;;0.40;0.20;;;18.00;99.90;;;;;;5033945;28;20205;-72
2022/08/14 04:04:52;;;;;;;0.20;0.20;;;17.90;99.90;;;;;;5034426;28;20183;-73
2022/08/14 04:07:23;;;;;;;0.20;0.20;;;17.90;99.90;;;;;;5026929;28;20205;-76
2022/08/14 04:09:56;;;;;;;0.32;0.10;;;17.80;99.90;;;;;;5032929;28;20218;-74
2022/08/14 04:12:26;;;;;;;0.38;0.30;;;17.80;99.90;;;;;;5036514;28;20193;-77
2022/08/14 04:14:57;;;;;;;0.20;0.20;;;17.80;99.90;;;;;;5032254;28;20270;-76
2022/08/14 04:17:28;;;;;;;0.15;0.13;;;17.80;99.90;;;;;;5041779;28;20205;-80
2022/08/14 04:20:04;;;;;;;0.20;0.20;;;17.90;99.90;;;;;;5028014;28;20245;-78
2022/08/14 04:22:35;;;;;;;1.38;0.20;;;17.80;99.90;;;;;;5031123;28;20198;-78
2022/08/14 04:25:09;;;;;;;0.50;0.30;;;17.80;99.90;;;;;;5027299;28;20195;-76
2022/08/14 04:27:42;;;;;;;2.65;0.30;;;17.60;99.90;;;;;;5028196;28;20234;-73
2022/08/14 04:30:14;;;;;;;0.20;0.20;;;17.30;99.90;;;;;;5031436;28;20205;-77
2022/08/14 04:32:45;;;;;;;0.40;0.30;;;17.30;99.90;;;;;;5029680;28;20201;-77
2022/08/14 04:35:16;;;;;;;0.25;0.25;;;17.20;99.90;;;;;;5032568;28;20290;-79
2022/08/14 04:43:38;;;;;;;4.07;2.63;;;17.30;99.90;;;;;;5027534;28;20220;-80
2022/08/14 04:46:10;;;;;;;2.47;1.48;;;17.30;99.90;;;;;;5032010;28;20285;-77
2022/08/14 04:48:41;;;;;;;1.33;0.88;;;17.20;99.90;;;;;;5037446;28;20228;-79
2022/08/14 04:51:14;;;;;;;1.70;1.10;;;17.20;99.90;;;;;;5039169;28;20205;-77
2022/08/14 04:53:47;;;;;;;3.33;3.03;;;17.10;99.90;;;;;;5028277;28;20221;-79
2022/08/14 04:56:21;;;;;;;1.95;1.20;;;17.00;99.90;;;;;;5031026;28;20653;-81
2022/08/14 04:58:56;;;;;;;0.90;0.60;;;17.00;99.90;;;;;;5033206;28;20197;-76
2022/08/14 05:01:28;;;;;;;5.43;3.33;;;16.90;99.90;;;;;;5025531;28;20193;-73
2022/08/14 05:03:59;;;;;;;4.63;3.28;;;16.90;99.90;;;;;;5033226;28;20202;-72
2022/08/14 05:06:30;;;;;;;3.08;2.40;;;17.00;99.90;;;;;;5032148;28;20202;-73
2022/08/14 05:09:01;;;;;;;2.00;1.70;;;17.00;99.90;;;;;;5021292;28;20420;-79
2022/08/14 05:11:34;;;;;;;1.05;0.82;;;17.20;99.90;;;;;;5022674;28;20229;-81
2022/08/14 05:14:05;;;;;;;2.33;0.82;;;17.20;99.90;;;;;;5031117;28;20194;-75
2022/08/14 05:16:36;;;;;;;1.20;0.65;;;17.20;99.90;;;;;;5038598;28;20673;-72
2022/08/14 05:19:09;;;;;;;0.55;0.50;;;17.20;99.90;;;;;;5029267;28;20336;-81
2022/08/14 05:21:40;;;;;;;0.30;0.30;;;17.10;99.90;;;;;;5035622;28;20209;-72
2022/08/14 05:24:11;;;;;;;0.43;0.43;;;17.20;99.90;;;;;;5038066;28;20199;-77
2022/08/14 05:26:45;;;;;;;0.30;0.20;;;17.30;99.90;;;;;;5028898;28;20202;-74
2022/08/14 05:29:16;;;;;;;0.40;0.20;;;17.40;99.90;;;;;;5032341;28;20278;-75
2022/08/14 05:31:47;;;;;;;0.20;0.20;;;17.30;99.90;;;;;;5032554;28;20324;-74
2022/08/14 05:34:18;;;;;;;0.10;0.10;;;17.30;99.90;;;;;;5039112;28;20265;-75
2022/08/14 05:36:50;;;;;;;1.05;0.20;;;17.30;99.90;;;;;;5031256;28;20230;-81
2022/08/14 05:39:21;;;;;;;0.20;0.10;;;17.30;99.90;;;;;;5027622;28;20284;-78
2022/08/14 05:41:55;;;;;;;0.10;0.10;;;17.30;99.90;;;;;;5024344;28;20201;-88
2022/08/14 05:44:26;;;;;;;0.20;0.10;;;17.20;99.90;;;;;;5030400;28;20191;-76
2022/08/14 05:46:57;;;;;;;0.10;0.10;;;17.20;99.90;;;;;;5034278;28;20252;-79
2022/08/14 05:49:28;;;;;;;0.15;0.15;;;17.20;99.90;;;;;;5028386;28;20700;-80
2022/08/14 05:51:59;;;;;;;0.32;0.20;;;17.10;99.90;;;;;;5034444;28;20202;-74
2022/08/14 05:54:30;;;;;;;0.65;0.20;;;17.10;99.90;;;;;;5031164;28;20190;-74
2022/08/14 05:57:03;;;;;;;0.30;0.20;;;16.90;99.90;;;;;;5036246;28;20560;-73
2022/08/14 05:59:34;;;;;;;0.75;0.30;;;16.80;99.90;;;;;;5031155;28;21929;-79
2022/08/14 06:02:05;;;;;;;0.32;0.30;;;16.80;99.90;;;;;;5031512;28;20224;-81
2022/08/14 06:04:36;;;;;;;1.23;0.93;;;16.80;99.90;;;;;;5031599;28;20292;-78
2022/08/14 06:07:07;;;;;;;0.75;0.45;;;16.80;99.90;;;;;;5033481;28;20626;-75
2022/08/14 06:09:38;;;;;;;0.20;0.20;;;16.90;99.90;;;;;;5032509;28;20221;-71
2022/08/14 06:12:11;;;;;;;0.35;0.20;;;16.80;99.90;;;;;;5035433;28;20197;-78
2022/08/14 06:14:42;;;;;;;0.35;0.20;;;16.70;99.90;;;;;;5032637;28;20277;-76
2022/08/14 06:17:13;;;;;;;0.22;0.22;;;16.60;99.90;;;;;;5030385;28;20190;-76
2022/08/14 06:19:44;;;;;;;0.28;0.28;;;16.60;99.90;;;;;;5033323;28;20195;-80
2022/08/14 06:22:15;;;;;;;0.50;0.32;;;16.60;99.90;;;;;;5035984;28;20197;-79
2022/08/14 06:24:46;;;;;;;0.60;0.40;;;16.60;99.90;;;;;;5031363;28;20233;-81
2022/08/14 06:27:19;;;;;;;1.02;0.32;;;16.60;99.90;;;;;;5030870;28;20186;-80
2022/08/14 06:29:49;;;;;;;0.45;0.43;;;16.60;99.90;;;;;;5033341;28;20221;-83
2022/08/14 06:32:20;;;;;;;0.30;0.30;;;16.50;99.90;;;;;;5034063;28;20654;-82
2022/08/14 06:34:51;;;;;;;0.52;0.30;;;16.60;99.90;;;;;;5035459;28;20203;-89
2022/08/14 06:37:22;;;;;;;0.30;0.20;;;16.60;99.90;;;;;;5035726;28;20721;-78
2022/08/14 06:39:53;;;;;;;3.03;0.85;;;16.60;99.90;;;;;;5040226;28;20244;-72
2022/08/14 06:42:25;;;;;;;0.20;0.20;;;16.50;99.90;;;;;;5032644;28;20226;-82
2022/08/14 06:44:56;;;;;;;0.30;0.30;;;16.50;99.90;;;;;;5035008;28;20194;-74
2022/08/14 06:47:27;;;;;;;0.38;0.30;;;16.40;99.90;;;;;;5035587;28;20201;-72
2022/08/14 06:49:58;;;;;;;0.40;0.30;;;16.40;99.90;;;;;;5034087;28;20575;-73
2022/08/14 06:52:29;;;;;;;0.47;0.40;;;16.40;99.90;;;;;;5039864;28;20193;-75
2022/08/14 06:54:59;;;;;;;0.52;0.30;;;16.40;99.90;;;;;;5039864;28;20204;-72
2022/08/14 06:57:38;;;;;;;0.35;0.30;;;16.30;99.90;;;;;;5044398;28;20202;-72
2022/08/14 07:00:11;;;;;;;0.40;0.40;;;16.30;99.90;;;;;;5038473;28;20688;-77
2022/08/14 07:05:48;;;;;;;0.68;0.40;;;16.20;99.90;;;;;;5043945;28;20719;-74
2022/08/14 07:08:21;;;;;;;0.45;0.20;;;16.10;99.90;;;;;;5034179;28;20201;-74
2022/08/14 07:10:53;;;;;;;0.20;0.20;;;16.00;99.90;;;;;;5043793;28;20268;-72
2022/08/14 07:13:26;;;;;;;0.90;0.20;;;16.00;99.90;;;;;;5035441;28;20284;-73
2022/08/14 07:15:59;;;;;;;0.30;0.30;;;15.90;99.90;;;;;;5043604;28;20229;-72
2022/08/14 07:18:32;;;;;;;0.35;0.35;;;15.80;99.90;;;;;;5036759;28;20281;-73
2022/08/14 07:21:04;;;;;;;0.32;0.30;;;15.70;99.90;;;;;;5039587;28;20225;-73
2022/08/14 07:23:35;;;;;;;0.47;0.22;;;15.60;99.90;;;;;;5039065;28;20197;-77
2022/08/14 07:26:06;;;;;;;0.30;0.30;;;15.50;99.90;;;;;;5042394;28;20194;-73
2022/08/14 07:28:41;;;;;;;0.30;0.30;;;15.40;99.90;;;;;;5038594;28;20205;-71
2022/08/14 07:31:14;;;;;;;0.57;0.30;;;15.40;99.90;;;;;;5034416;28;20256;-72
2022/08/14 07:33:47;;;;;;;0.50;0.40;;;15.40;99.90;;;;;;5034495;28;20221;-74
2022/08/14 07:36:19;;;;;;;0.43;0.30;;;15.30;99.90;;;;;;5035292;28;20197;-81
2022/08/14 07:38:50;;;;;;;0.45;0.32;;;15.20;99.90;;;;;;5035731;28;20233;-74
2022/08/14 07:41:21;;;;;;;0.30;0.30;;;15.20;99.90;;;;;;5039923;28;20205;-73
2022/08/14 07:43:54;;;;;;;1.33;0.50;;;15.10;99.90;;;;;;5044984;28;20210;-71
2022/08/14 07:46:25;;;;;;;0.40;0.30;;;15.10;99.90;;;;;;5038112;28;20197;-79
2022/08/14 07:48:55;;;;;;;0.43;0.40;;;15.00;99.90;;;;;;5034552;28;20194;-79
2022/08/14 07:51:26;;;;;;;0.40;0.38;;;14.90;99.90;;;;;;5034510;28;20194;-81
2022/08/14 07:53:58;;;;;;;1.55;0.40;;;14.90;99.90;;;;;;5037552;28;20202;-84
2022/08/14 07:56:29;;;;;;;0.30;0.30;;;14.90;99.90;;;;;;5033201;28;20208;-73
2022/08/14 07:59:02;;;;;;;0.50;0.40;;;14.90;99.90;;;;;;5044316;28;20193;-80
2022/08/14 08:01:34;;;;;;;0.47;0.47;;;14.80;99.90;;;;;;5033743;28;20272;-82
2022/08/14 08:04:07;;;;;;;2.17;0.40;;;14.80;99.90;;;;;;5041109;28;20199;-86
2022/08/14 08:06:39;;;;;;;0.30;0.30;;;14.80;99.90;;;;;;5036574;28;20654;-85
2022/08/14 08:09:12;;;;;;;17.90;12.45;;;14.70;99.90;;;;;;5038557;28;20214;-84
2022/08/14 08:11:44;;;;;;;13.10;8.70;;;14.60;99.90;;;;;;5035500;28;20208;-85
2022/08/14 08:14:16;;;;;;;10.77;7.22;;;14.60;99.90;;;;;;5043616;28;20276;-84
2022/08/14 08:16:48;;;;;;;3.05;1.95;;;14.50;99.90;;;;;;5030730;28;20572;-85
2022/08/14 08:19:19;;;;;;;2.13;1.52;;;14.50;99.90;;;;;;5032755;28;20194;-85
2022/08/14 08:21:50;;;;;;;0.63;0.55;;;14.40;99.90;;;;;;5036523;28;20662;-86
2022/08/14 08:24:21;;;;;;;0.95;0.85;;;14.30;99.90;;;;;;5034885;28;20198;-84
2022/08/14 08:26:52;;;;;;;1.95;0.95;;;14.30;99.90;;;;;;5037340;28;20194;-86
2022/08/14 08:29:25;;;;;;;1.33;0.90;;;14.20;99.90;;;;;;5035685;28;20772;-79
2022/08/14 08:31:58;;;;;;;1.00;0.90;;;14.20;99.90;;;;;;5035352;28;20224;-86
2022/08/14 08:34:31;;;;;;;1.33;0.70;;;14.20;99.90;;;;;;5036502;28;20234;-82
2022/08/14 08:37:02;;;;;;;0.50;0.47;;;14.20;99.90;;;;;;5035400;28;20198;-85
2022/08/14 08:39:43;;;;;;;0.90;0.63;;;14.10;99.90;;;;;;5032298;28;20280;-82
2022/08/14 08:42:14;;;;;;;0.90;0.70;;;14.10;99.90;;;;;;5029822;28;20562;-82
2022/08/14 08:44:46;;;;;;;0.85;0.55;;;14.00;99.90;;;;;;5036967;28;20198;-84
2022/08/14 08:47:17;;;;;;;0.50;0.50;;;14.00;99.90;;;;;;5033449;28;20308;-85
2022/08/14 08:49:48;;;;;;;1.42;0.50;;;14.00;99.90;;;;;;5042147;28;20226;-85
2022/08/14 08:52:20;;;;;;;0.68;0.50;;;13.90;99.90;;;;;;5034256;28;20199;-86
2022/08/14 08:54:56;;;;;;;1.50;0.63;;;13.90;99.90;;;;;;5038768;28;20325;-84
2022/08/14 08:57:27;;;;;;;2.05;0.40;;;13.90;99.90;;;;;;5035273;28;20200;-82
2022/08/14 09:00:03;;;;;;;0.82;0.43;;;13.80;99.90;;;;;;5035096;28;20190;-87
2022/08/14 09:02:33;;;;;;;0.50;0.40;;;13.80;99.90;;;;;;5034220;28;20205;-86
2022/08/14 09:05:05;;;;;;;0.57;0.35;;;13.80;99.90;;;;;;5033756;28;20198;-85
2022/08/14 09:07:36;;;;;;;0.60;0.50;;;13.70;99.90;;;;;;5034070;28;20214;-83
2022/08/14 09:10:07;;;;;;;3.42;0.52;;;13.70;99.90;;;;;;5037248;28;20218;-87
2022/08/14 09:12:38;;;;;;;0.70;0.60;;;13.70;99.90;;;;;;5033993;28;20197;-87
2022/08/14 09:15:12;;;;;;;0.50;0.40;;;13.60;99.90;;;;;;5034945;28;20193;-82
2022/08/14 09:17:44;;;;;;;0.95;0.60;;;13.60;99.90;;;;;;5039129;28;20193;-75
2022/08/14 09:20:15;;;;;;;1.73;0.63;;;13.60;99.90;;;;;;5039050;28;20209;-81
2022/08/14 09:22:48;;;;;;;0.50;0.50;;;13.50;99.90;;;;;;5033913;28;20202;-79
2022/08/14 09:25:19;;;;;;;1.42;0.63;;;13.50;99.90;;;;;;5040209;28;20194;-84
2022/08/14 09:27:50;;;;;;;0.50;0.50;;;13.50;99.90;;;;;;5037596;28;20729;-78
2022/08/14 09:30:23;;;;;;;0.50;0.50;;;13.60;99.90;;;;;;5034387;28;20234;-82
2022/08/14 09:33:20;;;;;;;1.70;0.40;;;13.50;99.90;;;;;;5032219;28;20301;-75
2022/08/14 09:36:04;;;;;;;0.32;0.32;;;13.60;99.90;;;;;;5043237;28;20267;-81
2022/08/14 09:38:43;;;;;;;0.65;0.65;;;13.60;99.90;;;;;;5037832;28;20236;-82
2022/08/14 09:41:32;;;;;;;0.38;0.38;;;13.50;99.90;;;;;;5027990;28;20705;-84
2022/08/14 09:44:11;;;;;;;0.35;0.35;;;13.50;99.90;;;;;;5035306;28;20311;-85
2022/08/14 09:46:55;;;;;;;0.80;0.47;;;13.50;99.90;;;;;;5041599;28;20746;-88
2022/08/14 09:49:34;;;;;;;0.35;0.35;;;13.40;99.90;;;;;;5031340;28;20194;-87
2022/08/14 09:52:11;;;;;;;0.80;0.60;;;13.40;99.90;;;;;;5026530;28;20282;-87
2022/08/14 09:54:44;;;;;;;1.10;0.60;;;13.30;99.90;;;;;;5040818;28;20216;-88
2022/08/14 09:57:29;;;;;;;1.20;0.63;;;13.30;99.90;;;;;;5038037;28;20209;-86
2022/08/14 10:00:01;;;;;;;1.30;0.60;;;13.20;99.90;;;;;;5037945;28;20285;-85
2022/08/14 10:02:36;;;;;;;1.75;0.70;;;13.20;99.90;;;;;;5032348;28;20197;-87
2022/08/14 10:05:10;;;;;;;0.93;0.50;;;13.20;99.90;;;;;;5039266;28;20569;-88
2022/08/14 10:07:49;;;;;;;0.65;0.50;;;13.10;99.90;;;;;;5037253;28;20215;-87
2022/08/14 10:10:31;;;;;;;0.82;0.70;;;13.10;99.90;;;;;;5032503;28;20679;-88
2022/08/14 10:13:04;;;;;;;1.73;0.80;;;13.10;99.90;;;;;;5032253;28;20204;-90
2022/08/14 10:15:40;;;;;;;2.42;0.90;;;13.00;99.90;;;;;;5030532;28;20221;-85
2022/08/14 10:18:14;;;;;;;0.80;0.60;;;12.90;99.90;;;;;;5033620;28;20273;-84
2022/08/14 10:20:54;;;;;;;0.90;0.70;;;12.90;99.90;;;;;;5031489;28;20194;-83
2022/08/14 10:23:26;;;;;;;0.90;0.80;;;12.90;99.90;;;;;;5038640;28;20221;-73
2022/08/14 10:26:07;;;;;;;2.55;0.77;;;12.90;99.90;;;;;;5031934;28;20658;-84
2022/08/14 10:28:43;;;;;;;1.10;0.80;;;12.90;99.90;;;;;;5037111;28;20198;-73
2022/08/14 10:31:24;;;;;;;1.83;0.93;;;12.80;99.90;;;;;;5035675;28;20232;-72
2022/08/14 10:34:08;;;;;;;0.60;0.60;;;12.80;99.90;;;;;;5034566;28;20202;-75
2022/08/14 10:36:40;;;;;;;0.80;0.70;;;12.80;99.90;;;;;;5029542;28;20202;-72
2022/08/14 10:39:18;;;;;;;0.77;0.70;;;12.80;99.90;;;;;;5030730;28;20661;-78
2022/08/14 10:42:04;;;;;;;0.85;0.70;;;12.80;99.90;;;;;;5025474;28;20292;-72
2022/08/14 10:44:37;;;;;;;0.93;0.82;;;12.70;99.90;;;;;;5030734;28;20289;-75
2022/08/14 10:47:10;;;;;;;1.83;0.90;;;12.70;99.90;;;;;;5027625;28;20194;-73
2022/08/14 10:49:48;;;;;;;1.23;0.80;;;12.70;99.90;;;;;;5031575;28;20589;-73
2022/08/14 10:52:24;;;;;;;1.30;0.80;;;12.70;99.90;;;;;;5037092;28;20537;-74
2022/08/14 10:55:08;;;;;;;1.00;0.80;;;12.60;99.90;;;;;;5030102;28;20208;-76
2022/08/14 10:57:51;;;;;;;0.80;0.70;;;12.60;99.90;;;;;;5038088;28;20680;-72
2022/08/14 11:00:25;;;;;;;0.75;0.70;;;12.60;99.90;;;;;;5030166;28;20190;-78
2022/08/14 11:03:01;;;;;;;0.80;0.68;;;12.50;99.90;;;;;;5027404;28;20201;-74
2022/08/14 11:05:44;;;;;;;1.65;0.80;;;12.50;99.90;;;;;;5032108;28;20194;-72
2022/08/14 11:08:16;;;;;;;1.10;0.70;;;12.50;99.90;;;;;;5031850;28;20182;-73
2022/08/14 11:10:49;;;;;;;0.60;0.60;;;12.40;99.90;;;;;;5023362;28;20222;-72
2022/08/14 11:13:22;;;;;;;1.13;0.70;;;12.40;99.90;;;;;;5031662;28;20269;-73
2022/08/14 11:15:54;;;;;;;0.65;0.60;;;12.40;99.90;;;;;;5023676;28;20201;-72
2022/08/14 11:18:26;;;;;;;0.90;0.75;;;12.30;99.90;;;;;;5030597;28;20672;-73
2022/08/14 11:21:00;;;;;;;1.05;0.90;;;12.30;99.90;;;;;;5033540;28;20201;-72
2022/08/14 11:23:33;;;;;;;0.70;0.70;;;12.30;99.90;;;;;;5033141;28;20194;-75
2022/08/14 11:26:04;;;;;;;0.80;0.80;;;12.20;99.90;;;;;;5034984;28;20200;-73
2022/08/14 11:28:39;;;;;;;0.98;0.75;;;12.20;99.90;;;;;;5033355;28;20670;-72
2022/08/14 11:31:12;;;;;;;0.95;0.70;;;12.20;99.90;;;;;;5032718;28;20229;-72
2022/08/14 11:33:43;;;;;;;0.60;0.60;;;12.20;99.90;;;;;;5033703;28;20652;-87
2022/08/14 11:36:16;;;;;;;1.08;0.50;;;12.20;99.90;;;;;;5037970;28;20202;-72
2022/08/14 11:38:48;;;;;;;1.15;0.57;;;12.20;99.90;;;;;;5033370;28;20238;-73
2022/08/14 11:41:19;;;;;;;0.50;0.50;;;12.20;99.90;;;;;;5032579;28;20230;-73
2022/08/14 11:43:51;;;;;;;0.50;0.50;;;12.20;99.90;;;;;;5035086;28;20211;-78
2022/08/14 11:46:23;;;;;;;1.52;0.55;;;12.20;99.90;;;;;;5034690;28;20198;-85
2022/08/14 11:48:54;;;;;;;0.63;0.47;;;12.30;99.90;;;;;;5031971;28;20208;-76
2022/08/14 11:51:28;;;;;;;0.73;0.50;;;12.30;99.90;;;;;;5035055;28;20222;-87
2022/08/14 11:54:03;;;;;;;0.73;0.50;;;12.20;99.90;;;;;;5025869;28;20194;-77
2022/08/14 11:56:38;;;;;;;0.50;0.50;;;12.30;99.90;;;;;;5035094;28;20212;-86
2022/08/14 11:59:18;;;;;;;1.20;0.60;;;12.20;99.90;;;;;;5035278;28;20201;-88
2022/08/14 12:01:49;;;;;;;0.98;0.60;;;12.30;99.90;;;;;;5033878;28;20201;-87
2022/08/14 12:04:22;;;;;;;0.50;0.50;;;12.30;99.90;;;;;;5033504;28;20209;-84
2022/08/14 12:06:57;;;;;;;0.75;0.60;;;12.30;99.90;;;;;;5030350;28;20201;-81
2022/08/14 12:09:38;;;;;;;1.02;0.52;;;12.30;99.90;;;;;;5031663;28;20197;-84
2022/08/14 12:12:17;;;;;;;2.17;0.52;;;12.30;99.90;;;;;;5033146;28;20305;-86
2022/08/14 12:14:55;;;;;;;0.40;0.40;;;12.30;99.90;;;;;;5036729;28;20255;-82
2022/08/14 12:17:26;;;;;;;0.90;0.50;;;12.30;99.90;;;;;;5034006;28;20598;-85
2022/08/14 12:20:00;;;;;;;0.40;0.40;;;12.30;99.90;;;;;;5033427;28;20205;-85
2022/08/14 12:22:40;;;;;;;0.88;0.32;;;12.30;99.90;;;;;;5033969;28;20205;-83
2022/08/14 12:25:13;;;;;;;0.43;0.40;;;12.30;99.90;;;;;;5034287;28;20671;-84
2022/08/14 12:27:48;;;;;;;0.40;0.40;;;12.30;99.90;;;;;;5031530;28;20281;-86
2022/08/14 12:30:30;;;;;;;0.60;0.40;;;12.30;99.90;;;;;;5027669;28;20214;-86
2022/08/14 12:33:01;;;;;;;0.40;0.40;;;12.30;99.90;;;;;;5030420;28;20198;-86
2022/08/14 12:35:48;;;;;;;0.50;0.50;;;12.30;99.90;;;;;;5032745;28;20556;-84
2022/08/14 12:38:33;;;;;;;0.35;0.35;;;12.30;99.90;;;;;;5029924;28;20285;-87
2022/08/14 12:41:06;;;;;;;0.30;0.30;;;12.30;99.90;;;;;;5032788;28;20622;-78
2022/08/14 12:43:48;;;;;;;0.20;0.20;;;12.30;99.90;;;;;;5033516;28;20645;-81
2022/08/14 12:46:30;;;;;;;0.45;0.40;;;12.30;99.90;;;;;;5031773;28;20202;-83
2022/08/14 12:49:05;;;;;;;0.60;0.50;;;12.30;99.90;;;;;;5026416;28;20201;-80
2022/08/14 12:51:36;;;;;;;0.70;0.50;;;12.30;99.90;;;;;;5029812;28;20231;-83
2022/08/14 12:54:19;;;;;;;0.38;0.38;;;12.30;99.90;;;;;;5031348;28;20195;-77
2022/08/14 12:56:50;;;;;;;0.30;0.30;;;12.30;99.90;;;;;;5031550;28;20281;-78
2022/08/14 12:59:31;;;;;;;0.63;0.30;;;12.30;99.90;;;;;;5028523;28;20593;-76
2022/08/14 13:02:03;;;;;;;0.63;0.30;;;12.30;99.90;;;;;;5032043;28;20232;-86
2022/08/14 13:04:34;;;;;;;0.55;0.40;;;12.30;99.90;;;;;;5029497;28;20668;-82
2022/08/14 13:07:07;;;;;;;0.40;0.40;;;12.30;99.90;;;;;;5031157;28;20202;-80
2022/08/14 13:09:40;;;;;;;0.40;0.40;;;12.30;99.90;;;;;;5028050;28;20199;-80
2022/08/14 13:12:12;;;;;;;0.43;0.40;;;12.30;99.90;;;;;;5028996;28;20214;-80
2022/08/14 13:14:49;;;;;;;0.40;0.40;;;12.30;99.90;;;;;;5034953;28;20259;-74
2022/08/14 13:17:21;;;;;;;0.82;0.38;;;12.30;99.90;;;;;;5035197;28;20616;-77
2022/08/14 13:19:53;;;;;;;0.30;0.30;;;12.20;99.90;;;;;;5039663;28;20206;-81
2022/08/14 13:22:27;;;;;;;0.32;0.30;;;12.20;99.90;;;;;;5030925;28;20213;-75
2022/08/14 13:25:01;;;;;;;0.38;0.38;;;12.20;99.90;;;;;;5028580;28;20256;-84
2022/08/14 13:27:35;;;;;;;0.30;0.30;;;12.20;99.90;;;;;;5037400;28;20194;-80